Time;durP1;ratioP1;P1;durP2;ratioP2;P2;SDS_P1;SDS_P2;PMS_P1;PMS_P2;Temp;Humidity;BMP_temperature;BMP_pressure;BME280_temperature;BME280_humidity;BME280_pressure;Samples;Min_cycle;Max_cycle;Signal;HPM_P1;HPM_P2
2022/06/24 00:02:21;;;;;;;0.00;0.00;;;19.70;99.90;;;;;;4991658;28;20041;-68
2022/06/24 00:04:53;;;;;;;7.03;0.70;;;19.50;99.90;;;;;;4992229;28;20026;-69
2022/06/24 00:07:19;;;;;;;0.00;0.00;;;19.50;99.90;;;;;;4993150;28;20042;-69
2022/06/24 00:09:45;;;;;;;0.00;0.00;;;19.20;99.90;;;;;;4991600;28;20038;-69
2022/06/24 00:12:23;;;;;;;0.00;0.00;;;19.20;99.90;;;;;;4991837;28;20471;-69
2022/06/24 00:14:59;;;;;;;0.10;0.10;;;19.10;99.90;;;;;;4991943;28;20038;-69
2022/06/24 00:17:32;;;;;;;0.30;0.30;;;19.00;99.90;;;;;;4993274;28;20085;-69
2022/06/24 00:20:05;;;;;;;2.05;0.93;;;19.00;99.90;;;;;;4992731;28;20034;-69
2022/06/24 00:22:42;;;;;;;0.00;0.00;;;18.90;99.90;;;;;;4992663;28;20041;-69
2022/06/24 00:25:11;;;;;;;0.28;0.28;;;18.80;99.90;;;;;;4992973;28;20100;-69
2022/06/24 00:27:38;;;;;;;0.00;0.00;;;18.80;99.90;;;;;;4991749;28;20030;-69
2022/06/24 00:30:08;;;;;;;0.00;0.00;;;18.80;99.90;;;;;;4991402;28;20030;-69
2022/06/24 00:32:34;;;;;;;1.60;0.55;;;18.70;99.90;;;;;;4992431;28;20118;-69
2022/06/24 00:35:17;;;;;;;0.00;0.00;;;18.70;99.90;;;;;;4992731;28;20117;-70
2022/06/24 00:37:45;;;;;;;0.00;0.00;;;18.70;99.90;;;;;;4975453;28;20084;-69
2022/06/24 00:40:11;;;;;;;0.32;0.32;;;18.70;99.90;;;;;;4991202;28;20398;-69
2022/06/24 00:42:40;;;;;;;0.57;0.57;;;18.70;99.90;;;;;;4992393;28;20105;-69
2022/06/24 00:45:42;;;;;;;0.25;0.25;;;18.70;99.90;;;;;;4991174;28;20034;-69
2022/06/24 00:48:14;;;;;;;0.00;0.00;;;18.60;99.90;;;;;;4992243;28;20041;-69
2022/06/24 00:50:46;;;;;;;0.00;0.00;;;18.50;99.90;;;;;;4991083;28;20162;-69
2022/06/24 00:53:13;;;;;;;0.08;0.08;;;18.60;99.90;;;;;;4990836;28;20041;-69
2022/06/24 00:55:43;;;;;;;0.20;0.20;;;18.50;99.90;;;;;;4991120;28;20027;-69
2022/06/24 00:58:15;;;;;;;3.33;1.35;;;18.40;99.90;;;;;;4992366;28;20027;-69
2022/06/24 01:00:47;;;;;;;0.05;0.05;;;18.40;99.90;;;;;;4991967;28;20481;-69
2022/06/24 01:03:14;;;;;;;0.03;0.03;;;18.40;99.90;;;;;;4990369;28;20026;-69
2022/06/24 01:05:42;;;;;;;0.90;0.45;;;18.40;99.90;;;;;;4987768;28;22478;-69
2022/06/24 01:08:12;;;;;;;0.00;0.00;;;18.30;99.90;;;;;;4999928;28;20119;-70
2022/06/24 01:10:41;;;;;;;0.00;0.00;;;18.40;99.90;;;;;;5006501;28;20022;-69
2022/06/24 01:13:09;;;;;;;0.40;0.32;;;18.50;99.90;;;;;;4990645;28;20041;-69
2022/06/24 01:15:35;;;;;;;0.00;0.00;;;18.50;99.90;;;;;;4990744;28;20083;-69
2022/06/24 01:18:02;;;;;;;0.30;0.22;;;18.50;99.90;;;;;;4990710;28;20026;-69
2022/06/24 01:20:27;;;;;;;0.77;0.13;;;18.60;99.90;;;;;;4990230;28;20030;-69
2022/06/24 01:22:53;;;;;;;0.03;0.03;;;18.50;99.90;;;;;;5007133;28;20100;-69
2022/06/24 01:25:19;;;;;;;0.38;0.32;;;18.50;99.90;;;;;;4990667;28;20359;-69
2022/06/24 01:27:45;;;;;;;0.35;0.32;;;18.60;99.90;;;;;;4991470;28;20034;-69
2022/06/24 01:30:11;;;;;;;0.15;0.15;;;18.60;99.90;;;;;;4991704;28;20034;-69
2022/06/24 01:32:36;;;;;;;1.48;0.57;;;18.60;99.90;;;;;;4991308;28;20113;-69
2022/06/24 01:35:03;;;;;;;0.10;0.10;;;18.60;99.90;;;;;;4991277;28;20062;-69
2022/06/24 01:37:29;;;;;;;0.00;0.00;;;18.70;99.90;;;;;;4991467;28;20026;-69
2022/06/24 01:39:55;;;;;;;0.68;0.38;;;18.70;99.90;;;;;;4991255;28;20034;-70
2022/06/24 01:42:21;;;;;;;0.10;0.10;;;18.70;99.90;;;;;;4991407;28;20084;-69
2022/06/24 01:44:46;;;;;;;0.35;0.25;;;18.60;99.90;;;;;;4991550;28;20083;-70
2022/06/24 01:47:12;;;;;;;0.00;0.00;;;18.50;99.90;;;;;;4991477;28;20026;-70
2022/06/24 01:49:38;;;;;;;0.00;0.00;;;18.50;99.90;;;;;;4991250;28;20046;-70
2022/06/24 01:52:04;;;;;;;0.75;0.52;;;18.40;99.90;;;;;;4990942;28;20026;-70
2022/06/24 01:54:30;;;;;;;1.02;0.55;;;18.30;99.90;;;;;;4989880;28;20503;-70
2022/06/24 01:56:56;;;;;;;0.22;0.22;;;18.30;99.90;;;;;;4991087;28;20030;-70
2022/06/24 01:59:22;;;;;;;1.02;0.57;;;18.40;99.90;;;;;;4990705;28;20037;-70
2022/06/24 02:01:48;;;;;;;0.00;0.00;;;18.50;99.90;;;;;;4989844;28;20438;-70
2022/06/24 02:04:14;;;;;;;0.15;0.10;;;18.50;99.90;;;;;;4991100;28;20030;-70
2022/06/24 02:06:40;;;;;;;0.30;0.30;;;18.60;99.90;;;;;;4989970;28;20061;-70
2022/06/24 02:09:07;;;;;;;0.00;0.00;;;18.60;99.90;;;;;;4989492;28;20454;-70
2022/06/24 02:14:19;;;;;;;1.30;0.52;;;18.70;99.90;;;;;;4990052;28;20033;-70
2022/06/24 02:16:46;;;;;;;0.20;0.20;;;18.60;99.90;;;;;;5012691;28;20112;-70
2022/06/24 02:19:12;;;;;;;0.13;0.10;;;18.60;99.90;;;;;;4997094;28;20023;-70
2022/06/24 02:21:38;;;;;;;0.57;0.40;;;18.60;99.90;;;;;;5012095;28;20499;-71
2022/06/24 02:24:05;;;;;;;0.30;0.25;;;18.60;99.90;;;;;;4997719;28;20077;-70
2022/06/24 02:26:31;;;;;;;0.00;0.00;;;18.40;99.90;;;;;;4997739;28;20163;-70
2022/06/24 02:28:57;;;;;;;1.40;0.70;;;18.40;99.90;;;;;;4997130;28;20530;-70
2022/06/24 02:31:23;;;;;;;0.03;0.03;;;18.30;99.90;;;;;;5012609;28;20046;-70
2022/06/24 02:33:49;;;;;;;0.00;0.00;;;18.30;99.90;;;;;;4996097;28;20034;-70
2022/06/24 02:36:15;;;;;;;0.20;0.20;;;18.30;99.90;;;;;;4997174;28;20033;-72
2022/06/24 02:38:41;;;;;;;0.20;0.20;;;18.30;99.90;;;;;;4995686;28;20027;-71
2022/06/24 02:41:08;;;;;;;0.00;0.00;;;18.20;99.90;;;;;;4996105;28;20475;-70
2022/06/24 02:43:36;;;;;;;0.10;0.10;;;18.20;99.90;;;;;;4995858;28;20042;-70
2022/06/24 02:46:08;;;;;;;0.05;0.05;;;18.20;99.90;;;;;;4996229;28;20295;-71
2022/06/24 02:48:37;;;;;;;0.17;0.10;;;18.20;99.90;;;;;;4995809;28;20112;-71
2022/06/24 02:51:09;;;;;;;1.65;1.25;;;18.10;99.90;;;;;;4997057;28;20031;-71
2022/06/24 02:53:36;;;;;;;0.45;0.45;;;18.10;99.90;;;;;;4996063;28;20030;-71
2022/06/24 02:56:04;;;;;;;0.00;0.00;;;18.20;99.90;;;;;;4995969;28;20054;-71
2022/06/24 02:58:32;;;;;;;2.78;1.55;;;18.20;99.90;;;;;;4995640;28;20030;-71
2022/06/24 03:01:00;;;;;;;0.32;0.32;;;18.20;99.90;;;;;;4997120;28;20053;-72
2022/06/24 03:03:27;;;;;;;0.15;0.13;;;18.20;99.90;;;;;;4996712;28;20030;-71
2022/06/24 03:05:53;;;;;;;0.10;0.10;;;18.30;99.90;;;;;;4996106;28;20045;-71
2022/06/24 03:08:22;;;;;;;0.00;0.00;;;18.30;99.90;;;;;;4996933;28;20033;-70
2022/06/24 03:10:49;;;;;;;0.05;0.05;;;18.30;99.90;;;;;;4995777;28;20037;-70
2022/06/24 03:13:15;;;;;;;0.80;0.75;;;18.40;99.90;;;;;;4997256;28;20102;-71
2022/06/24 03:15:43;;;;;;;0.00;0.00;;;18.30;99.90;;;;;;4997115;28;20069;-71
2022/06/24 03:18:11;;;;;;;4.75;0.68;;;18.30;99.90;;;;;;4995804;28;20034;-71
2022/06/24 03:20:37;;;;;;;0.08;0.08;;;18.30;99.90;;;;;;4996874;28;20126;-71
2022/06/24 03:23:02;;;;;;;0.20;0.20;;;18.30;99.90;;;;;;4996879;28;20026;-71
2022/06/24 03:25:28;;;;;;;0.08;0.08;;;18.30;99.90;;;;;;4997209;28;20076;-71
2022/06/24 03:27:54;;;;;;;0.00;0.00;;;18.20;99.90;;;;;;4993402;28;20474;-71
2022/06/24 03:30:20;;;;;;;0.70;0.28;;;18.30;99.90;;;;;;4992357;28;20037;-71
2022/06/24 03:32:46;;;;;;;1.60;0.88;;;18.30;99.90;;;;;;4994006;28;20030;-71
2022/06/24 03:35:11;;;;;;;0.03;0.03;;;18.20;99.90;;;;;;4992909;28;20041;-71
2022/06/24 03:37:37;;;;;;;0.00;0.00;;;18.10;99.90;;;;;;4992670;28;20066;-71
2022/06/24 03:40:04;;;;;;;0.00;0.00;;;18.10;99.90;;;;;;4993410;28;20116;-71
2022/06/24 03:42:30;;;;;;;0.00;0.00;;;18.10;99.90;;;;;;4992292;28;20038;-71
2022/06/24 03:44:56;;;;;;;0.00;0.00;;;18.10;99.90;;;;;;4993652;28;20030;-71
2022/06/24 03:47:22;;;;;;;0.00;0.00;;;18.10;99.90;;;;;;4993545;28;20037;-68
2022/06/24 03:49:50;;;;;;;0.13;0.10;;;18.10;99.90;;;;;;4948807;28;20161;-67
2022/06/24 03:52:17;;;;;;;0.47;0.47;;;18.10;99.90;;;;;;4991912;28;20041;-71
2022/06/24 03:54:43;;;;;;;0.10;0.10;;;18.10;99.90;;;;;;4993741;28;20150;-73
2022/06/24 03:57:08;;;;;;;0.00;0.00;;;18.00;99.90;;;;;;4978791;28;20057;-73
2022/06/24 03:59:34;;;;;;;0.38;0.38;;;18.00;99.90;;;;;;4989683;28;20022;-73
2022/06/24 04:02:00;;;;;;;0.00;0.00;;;18.10;99.90;;;;;;4993166;28;20049;-69
2022/06/24 04:04:25;;;;;;;0.00;0.00;;;18.10;99.90;;;;;;4994286;28;20482;-79
2022/06/24 04:06:51;;;;;;;0.00;0.00;;;18.10;99.90;;;;;;4992495;28;20571;-78
2022/06/24 04:09:18;;;;;;;0.08;0.08;;;18.10;99.90;;;;;;5007720;28;20073;-78
2022/06/24 04:11:44;;;;;;;0.15;0.15;;;18.10;99.90;;;;;;4989337;28;20479;-73
2022/06/24 04:14:10;;;;;;;0.00;0.00;;;18.20;99.90;;;;;;4982477;28;20034;-74
2022/06/24 04:16:35;;;;;;;0.25;0.25;;;18.10;99.90;;;;;;4977578;28;20027;-73
2022/06/24 04:19:01;;;;;;;0.00;0.00;;;18.10;99.90;;;;;;4973492;28;20066;-73
2022/06/24 04:21:27;;;;;;;0.28;0.28;;;18.20;99.90;;;;;;4972307;28;20113;-75
2022/06/24 04:23:53;;;;;;;0.00;0.00;;;18.10;99.90;;;;;;4973152;28;20027;-78
2022/06/24 04:26:20;;;;;;;0.00;0.00;;;18.10;99.90;;;;;;4977280;28;20037;-76
2022/06/24 04:28:48;;;;;;;0.05;0.05;;;18.20;99.90;;;;;;4990935;28;20035;-74
2022/06/24 04:31:14;;;;;;;0.20;0.20;;;18.20;99.90;;;;;;4992531;28;20026;-77
2022/06/24 04:33:40;;;;;;;0.00;0.00;;;18.20;99.90;;;;;;4992425;28;20042;-74
2022/06/24 04:36:13;;;;;;;0.60;0.32;;;18.40;99.90;;;;;;4992617;28;20073;-76
2022/06/24 04:38:42;;;;;;;0.00;0.00;;;18.40;99.90;;;;;;4991710;28;20049;-75
2022/06/24 04:41:14;;;;;;;0.00;0.00;;;18.40;99.90;;;;;;4992532;28;20113;-78
2022/06/24 04:43:40;;;;;;;0.00;0.00;;;18.30;99.90;;;;;;4990895;28;20134;-74
2022/06/24 04:46:05;;;;;;;0.00;0.00;;;18.30;99.90;;;;;;4992339;28;20113;-77
2022/06/24 04:48:33;;;;;;;0.00;0.00;;;18.30;99.90;;;;;;4992246;28;20101;-76
2022/06/24 04:50:59;;;;;;;0.00;0.00;;;18.30;99.90;;;;;;4991037;28;20080;-76
2022/06/24 04:53:25;;;;;;;0.20;0.20;;;18.40;99.90;;;;;;4992086;28;20430;-76
2022/06/24 04:55:51;;;;;;;0.22;0.22;;;18.40;99.90;;;;;;4990513;28;20574;-77
2022/06/24 04:58:16;;;;;;;0.47;0.47;;;18.50;99.90;;;;;;4991984;28;20030;-73
2022/06/24 05:00:42;;;;;;;2.67;1.88;;;18.60;99.90;;;;;;4987553;28;20368;-75
2022/06/24 05:03:08;;;;;;;0.20;0.20;;;18.60;99.90;;;;;;4986985;28;20065;-75
2022/06/24 05:05:34;;;;;;;0.00;0.00;;;18.80;99.90;;;;;;4991407;28;20026;-76
2022/06/24 05:07:59;;;;;;;0.00;0.00;;;18.80;99.90;;;;;;4990959;28;20482;-78
2022/06/24 05:10:25;;;;;;;0.03;0.03;;;18.80;99.90;;;;;;4991675;28;20031;-80
2022/06/24 05:12:51;;;;;;;0.10;0.10;;;18.80;99.90;;;;;;4991017;28;20027;-80
2022/06/24 05:15:17;;;;;;;0.00;0.00;;;18.80;99.90;;;;;;4983373;28;20029;-79
2022/06/24 05:17:42;;;;;;;0.52;0.52;;;18.90;99.90;;;;;;4971106;28;20117;-79
2022/06/24 05:20:09;;;;;;;0.47;0.47;;;18.90;99.90;;;;;;4971941;28;20098;-80
2022/06/24 05:22:35;;;;;;;1.52;0.45;;;18.90;99.90;;;;;;4975961;28;20030;-80
2022/06/24 05:25:01;;;;;;;0.00;0.00;;;19.00;99.90;;;;;;4980309;28;20196;-80
2022/06/24 05:27:27;;;;;;;1.27;0.32;;;19.00;99.90;;;;;;4987524;28;20034;-80
2022/06/24 05:29:53;;;;;;;6.63;0.77;;;19.00;99.90;;;;;;4989370;28;20022;-80
2022/06/24 05:32:18;;;;;;;1.75;0.80;;;19.00;99.90;;;;;;4991125;28;20037;-80
2022/06/24 05:34:44;;;;;;;0.32;0.32;;;19.20;99.90;;;;;;4991323;28;20147;-81
2022/06/24 05:37:10;;;;;;;0.20;0.20;;;19.20;99.90;;;;;;5006561;28;20036;-81
2022/06/24 05:39:36;;;;;;;1.13;0.68;;;19.30;99.90;;;;;;4990869;28;20031;-81
2022/06/24 05:42:02;;;;;;;0.10;0.10;;;19.30;99.90;;;;;;4991048;28;20042;-79
2022/06/24 05:44:27;;;;;;;0.13;0.13;;;19.40;99.90;;;;;;4991293;28;20609;-79
2022/06/24 05:46:54;;;;;;;0.73;0.70;;;19.40;99.90;;;;;;4993291;28;20042;-71
2022/06/24 05:49:21;;;;;;;0.10;0.10;;;19.50;99.90;;;;;;4990569;28;20037;-80
2022/06/24 05:51:46;;;;;;;0.15;0.15;;;19.50;99.90;;;;;;4990753;28;20058;-73
2022/06/24 05:56:56;;;;;;;0.75;0.68;;;19.50;99.90;;;;;;4993043;28;20150;-68
2022/06/24 05:59:22;;;;;;;0.00;0.00;;;19.50;99.90;;;;;;5005789;28;20121;-68
2022/06/24 06:01:49;;;;;;;1.40;0.40;;;19.50;99.90;;;;;;4991042;28;20041;-68
2022/06/24 06:04:15;;;;;;;0.00;0.00;;;19.50;99.90;;;;;;4991155;28;20034;-68
2022/06/24 06:06:41;;;;;;;0.35;0.17;;;19.60;99.90;;;;;;4991124;28;20680;-69
2022/06/24 06:09:07;;;;;;;1.15;0.70;;;19.60;99.90;;;;;;4990636;28;20030;-69
2022/06/24 06:11:33;;;;;;;0.22;0.20;;;19.50;99.90;;;;;;4990872;28;20026;-68
2022/06/24 06:13:58;;;;;;;0.73;0.70;;;19.50;99.90;;;;;;4990754;28;20041;-69
2022/06/24 06:16:26;;;;;;;0.45;0.45;;;19.60;99.90;;;;;;4990916;28;20521;-69
2022/06/24 06:18:52;;;;;;;0.75;0.75;;;19.70;99.90;;;;;;4991273;28;20117;-69
2022/06/24 06:21:18;;;;;;;0.65;0.65;;;19.70;99.90;;;;;;4989261;28;20041;-68
2022/06/24 06:23:45;;;;;;;0.22;0.22;;;19.70;99.90;;;;;;4989796;28;20113;-69
2022/06/24 06:26:11;;;;;;;0.10;0.10;;;19.80;99.90;;;;;;4989598;28;20038;-68
2022/06/24 06:28:38;;;;;;;0.50;0.45;;;19.90;99.90;;;;;;4989364;28;20044;-68
2022/06/24 06:31:05;;;;;;;0.73;0.38;;;20.00;99.90;;;;;;4989780;28;20121;-69
2022/06/24 06:33:31;;;;;;;1.35;0.50;;;20.10;99.90;;;;;;4990695;28;20080;-65
2022/06/24 06:36:11;;;;;;;0.00;0.00;;;20.20;99.90;;;;;;4989520;28;20114;-68
2022/06/24 06:38:38;;;;;;;0.17;0.17;;;20.20;99.90;;;;;;4989204;28;20068;-67
2022/06/24 06:41:04;;;;;;;0.00;0.00;;;20.30;99.90;;;;;;4973510;28;20554;-67
2022/06/24 06:43:30;;;;;;;1.15;0.55;;;20.50;99.90;;;;;;4990537;28;20129;-67
2022/06/24 06:45:57;;;;;;;0.00;0.00;;;20.60;99.90;;;;;;4990820;28;20039;-68
2022/06/24 06:48:23;;;;;;;3.65;0.98;;;20.80;99.90;;;;;;4989274;28;20100;-67
2022/06/24 06:50:55;;;;;;;2.60;1.10;;;20.90;99.90;;;;;;4989239;28;20424;-68
2022/06/24 06:53:21;;;;;;;0.10;0.10;;;21.00;99.90;;;;;;4979300;28;20081;-68
2022/06/24 06:55:48;;;;;;;0.22;0.20;;;20.90;99.90;;;;;;4976787;28;20113;-68
2022/06/24 06:58:13;;;;;;;0.10;0.10;;;20.70;99.90;;;;;;5005457;28;20027;-68
2022/06/24 07:00:39;;;;;;;0.30;0.20;;;20.90;99.90;;;;;;5005065;28;20038;-68
2022/06/24 07:03:05;;;;;;;0.10;0.10;;;20.90;99.90;;;;;;4992144;28;20069;-68
2022/06/24 07:05:31;;;;;;;1.27;0.32;;;20.90;99.90;;;;;;4994670;28;20030;-68
2022/06/24 07:07:57;;;;;;;0.82;0.82;;;20.90;99.90;;;;;;4994397;28;20117;-68
2022/06/24 07:10:22;;;;;;;0.65;0.28;;;20.90;99.90;;;;;;4994129;28;20030;-68
2022/06/24 07:12:48;;;;;;;0.30;0.30;;;20.90;99.90;;;;;;4993709;28;20073;-67
2022/06/24 07:15:16;;;;;;;0.00;0.00;;;21.00;99.90;;;;;;4994166;28;20030;-68
2022/06/24 07:17:42;;;;;;;0.00;0.00;;;21.00;99.90;;;;;;4993699;28;20026;-68
2022/06/24 07:20:09;;;;;;;0.10;0.10;;;21.00;99.90;;;;;;5008720;28;20026;-67
2022/06/24 07:22:35;;;;;;;0.00;0.00;;;20.90;99.90;;;;;;5008737;28;20095;-68
2022/06/24 07:25:01;;;;;;;0.10;0.10;;;21.10;99.90;;;;;;4993927;28;20038;-67
2022/06/24 07:27:27;;;;;;;0.30;0.20;;;21.20;99.90;;;;;;4994275;28;20146;-67
2022/06/24 07:29:53;;;;;;;0.00;0.00;;;21.30;99.90;;;;;;5007168;28;20030;-68
2022/06/24 07:32:18;;;;;;;0.00;0.00;;;21.30;99.90;;;;;;4981129;28;20049;-67
2022/06/24 07:34:44;;;;;;;0.00;0.00;;;21.20;99.90;;;;;;5008237;28;20030;-68
2022/06/24 07:37:10;;;;;;;0.00;0.00;;;21.40;99.90;;;;;;4988772;28;20386;-67
2022/06/24 07:39:36;;;;;;;0.00;0.00;;;21.30;99.90;;;;;;4976103;28;20116;-68
2022/06/24 07:42:02;;;;;;;1.45;1.35;;;21.30;99.90;;;;;;4984965;28;20101;-67
2022/06/24 07:44:28;;;;;;;0.05;0.05;;;21.20;99.90;;;;;;4973564;28;20491;-67
2022/06/24 07:46:53;;;;;;;0.00;0.00;;;21.40;99.90;;;;;;4984209;28;20918;-68
2022/06/24 07:49:19;;;;;;;0.63;0.55;;;21.50;99.90;;;;;;4974263;28;20039;-68
2022/06/24 07:51:45;;;;;;;0.17;0.17;;;21.60;99.90;;;;;;4986642;28;20117;-68
2022/06/24 07:54:11;;;;;;;0.22;0.20;;;21.70;99.90;;;;;;4973727;28;20033;-67
2022/06/24 07:59:37;;;;;;;0.08;0.08;;;21.80;99.90;;;;;;4982361;28;20070;-72
2022/06/24 08:02:07;;;;;;;0.25;0.25;;;21.70;99.90;;;;;;4975847;28;20030;-72
2022/06/24 08:04:34;;;;;;;0.38;0.35;;;21.70;99.90;;;;;;5007239;28;20026;-73
2022/06/24 08:07:02;;;;;;;0.10;0.10;;;21.80;99.90;;;;;;5007522;28;20038;-72
2022/06/24 08:09:31;;;;;;;1.50;0.47;;;21.90;99.90;;;;;;4988492;28;20038;-72
2022/06/24 08:11:57;;;;;;;0.10;0.10;;;21.90;99.90;;;;;;4983649;28;20030;-73
2022/06/24 08:14:23;;;;;;;0.52;0.17;;;22.00;99.90;;;;;;4991558;28;20530;-72
2022/06/24 08:16:48;;;;;;;0.20;0.20;;;22.10;99.90;;;;;;4979553;28;20506;-73
2022/06/24 08:19:15;;;;;;;1.52;0.57;;;22.30;99.90;;;;;;4978602;28;20025;-73
2022/06/24 08:21:42;;;;;;;0.15;0.15;;;22.40;99.90;;;;;;4982448;28;20049;-73
2022/06/24 08:24:09;;;;;;;0.00;0.00;;;22.30;99.90;;;;;;4987875;28;20525;-73
2022/06/24 08:26:34;;;;;;;0.00;0.00;;;22.40;99.90;;;;;;4983144;28;20038;-72
2022/06/24 08:29:00;;;;;;;0.05;0.00;;;22.40;99.90;;;;;;4978636;28;20034;-72
2022/06/24 08:31:26;;;;;;;3.92;1.20;;;22.20;99.90;;;;;;4977926;28;20074;-72
2022/06/24 08:33:52;;;;;;;0.00;0.00;;;22.00;99.90;;;;;;4986909;28;20109;-73
2022/06/24 08:36:17;;;;;;;0.00;0.00;;;22.00;99.90;;;;;;4979411;28;20419;-72
2022/06/24 08:38:43;;;;;;;0.22;0.22;;;22.30;99.90;;;;;;4988010;28;20033;-72
2022/06/24 08:41:10;;;;;;;0.10;0.10;;;22.30;99.90;;;;;;5004554;28;20030;-72
2022/06/24 08:43:36;;;;;;;0.00;0.00;;;22.40;99.90;;;;;;4987418;28;20080;-72
2022/06/24 08:46:04;;;;;;;0.60;0.55;;;22.40;99.90;;;;;;4984335;28;20138;-73
2022/06/24 08:48:33;;;;;;;24.23;1.45;;;22.60;99.90;;;;;;4987595;28;20041;-72
2022/06/24 08:51:06;;;;;;;0.05;0.05;;;22.80;99.90;;;;;;4984119;28;20033;-73
2022/06/24 08:53:35;;;;;;;0.00;0.00;;;22.80;99.90;;;;;;5002132;28;20034;-72
2022/06/24 08:56:01;;;;;;;0.03;0.03;;;22.90;99.90;;;;;;4986682;28;20529;-73
2022/06/24 08:58:27;;;;;;;0.00;0.00;;;22.80;99.90;;;;;;4985143;28;20030;-73
2022/06/24 09:00:52;;;;;;;0.00;0.00;;;22.90;99.90;;;;;;5006829;28;20040;-72
2022/06/24 09:03:18;;;;;;;0.30;0.20;;;22.90;99.90;;;;;;4977070;28;20061;-72
2022/06/24 09:05:44;;;;;;;0.40;0.40;;;22.60;99.90;;;;;;4977979;28;20102;-72
2022/06/24 09:08:14;;;;;;;0.63;0.52;;;22.60;99.90;;;;;;4989767;28;20389;-72
2022/06/24 09:11:06;;;;;;;0.00;0.00;;;22.70;99.90;;;;;;4987293;28;20034;-73
2022/06/24 09:13:55;;;;;;;0.35;0.28;;;23.10;99.90;;;;;;4986652;28;20042;-73
2022/06/24 09:16:25;;;;;;;0.00;0.00;;;23.30;99.90;;;;;;4998126;28;20035;-72
2022/06/24 09:19:00;;;;;;;0.00;0.00;;;23.50;99.90;;;;;;5005724;28;20030;-72
2022/06/24 09:21:34;;;;;;;0.22;0.17;;;23.50;99.90;;;;;;4983512;28;20026;-71
2022/06/24 09:24:03;;;;;;;0.00;0.00;;;23.40;99.90;;;;;;4970319;28;20066;-71
2022/06/24 09:26:37;;;;;;;1.05;0.95;;;23.50;99.90;;;;;;4981357;28;20038;-72
2022/06/24 09:29:10;;;;;;;0.05;0.05;;;23.50;99.90;;;;;;4971609;28;20479;-72
2022/06/24 09:31:38;;;;;;;0.40;0.40;;;23.80;99.90;;;;;;4982198;28;20152;-72
2022/06/24 09:34:14;;;;;;;0.22;0.20;;;24.10;99.90;;;;;;4987824;28;20027;-72
2022/06/24 09:36:42;;;;;;;0.15;0.15;;;24.00;99.90;;;;;;4996744;28;20030;-72
2022/06/24 09:39:13;;;;;;;0.20;0.13;;;24.00;99.90;;;;;;4986743;28;20038;-72
2022/06/24 09:41:44;;;;;;;0.22;0.22;;;24.20;99.90;;;;;;4986705;28;20031;-72
2022/06/24 09:44:11;;;;;;;0.10;0.08;;;24.20;99.90;;;;;;4986137;28;20039;-71
2022/06/24 09:46:37;;;;;;;0.00;0.00;;;24.40;99.90;;;;;;4990257;28;20038;-72
2022/06/24 09:49:12;;;;;;;0.00;0.00;;;24.40;99.90;;;;;;4987301;28;20034;-72
2022/06/24 09:51:39;;;;;;;0.30;0.30;;;24.50;99.90;;;;;;4986076;28;20105;-72
2022/06/24 09:54:06;;;;;;;0.05;0.05;;;24.90;99.90;;;;;;4985344;28;20030;-72
2022/06/24 09:56:33;;;;;;;0.20;0.20;;;25.00;99.90;;;;;;4974451;28;20022;-71
2022/06/24 10:01:45;;;;;;;0.47;0.47;;;24.80;99.90;;;;;;4998606;28;20058;-72
2022/06/24 10:04:18;;;;;;;0.28;0.20;;;24.60;99.90;;;;;;5005140;28;20049;-71
2022/06/24 10:06:47;;;;;;;0.15;0.15;;;24.30;99.90;;;;;;4994710;28;20035;-70
2022/06/24 10:09:13;;;;;;;0.08;0.08;;;24.10;99.90;;;;;;4976759;28;20045;-68
2022/06/24 10:11:44;;;;;;;0.45;0.45;;;24.20;99.90;;;;;;5003369;28;20030;-68
2022/06/24 10:14:12;;;;;;;0.00;0.00;;;24.50;99.90;;;;;;4986957;28;20037;-69
2022/06/24 10:16:42;;;;;;;0.20;0.20;;;24.40;99.90;;;;;;4981307;28;20058;-69
2022/06/24 10:19:10;;;;;;;0.90;0.73;;;24.40;99.90;;;;;;4988710;28;20053;-68
2022/06/24 10:21:37;;;;;;;0.10;0.10;;;24.30;99.90;;;;;;5004574;28;20395;-70
2022/06/24 10:24:15;;;;;;;1.98;0.93;;;24.40;99.90;;;;;;4987010;28;20046;-70
2022/06/24 10:26:46;;;;;;;0.00;0.00;;;24.60;99.90;;;;;;5004052;28;20032;-69
2022/06/24 10:29:22;;;;;;;0.00;0.00;;;24.80;99.90;;;;;;4973277;28;20074;-69
2022/06/24 10:31:56;;;;;;;0.10;0.10;;;24.80;99.90;;;;;;4981797;28;20065;-70
2022/06/24 10:34:22;;;;;;;0.00;0.00;;;24.80;99.90;;;;;;4989430;28;20077;-67
2022/06/24 10:37:05;;;;;;;0.17;0.17;;;24.50;99.90;;;;;;4984477;28;20031;-68
2022/06/24 10:39:51;;;;;;;0.80;0.55;;;24.40;99.90;;;;;;4990494;28;20077;-69
2022/06/24 10:42:21;;;;;;;0.35;0.30;;;24.40;99.90;;;;;;5006854;28;20376;-69
2022/06/24 10:44:59;;;;;;;0.13;0.10;;;24.30;99.90;;;;;;4991584;28;20060;-69
2022/06/24 10:47:30;;;;;;;0.22;0.22;;;24.60;99.90;;;;;;5005628;28;20121;-69
2022/06/24 10:50:03;;;;;;;24.50;0.70;;;24.30;99.90;;;;;;4974284;28;20037;-69
2022/06/24 10:52:36;;;;;;;0.03;0.03;;;24.40;99.90;;;;;;4989896;28;20133;-68
2022/06/24 10:55:17;;;;;;;0.25;0.25;;;24.60;99.90;;;;;;5008700;28;20070;-69
2022/06/24 10:58:02;;;;;;;0.17;0.10;;;24.90;99.90;;;;;;4977971;28;20027;-63
2022/06/24 11:00:29;;;;;;;0.10;0.10;;;25.20;99.90;;;;;;4976806;28;20030;-63
2022/06/24 11:03:13;;;;;;;3.83;1.45;;;25.00;99.90;;;;;;4981923;28;20039;-64
2022/06/24 11:05:42;;;;;;;0.32;0.20;;;24.70;99.90;;;;;;4978779;28;20057;-64
2022/06/24 11:08:17;;;;;;;0.00;0.00;;;24.80;99.90;;;;;;5008148;28;20058;-64
2022/06/24 11:10:44;;;;;;;0.80;0.43;;;24.80;99.90;;;;;;4988254;28;20042;-64
2022/06/24 11:13:10;;;;;;;0.10;0.10;;;25.10;99.90;;;;;;4989735;28;20038;-64
2022/06/24 11:15:49;;;;;;;0.05;0.05;;;25.10;99.90;;;;;;4989290;28;20102;-64
2022/06/24 11:18:34;;;;;;;0.08;0.08;;;24.80;99.90;;;;;;4987610;28;20125;-62
2022/06/24 11:21:09;;;;;;;0.20;0.20;;;25.20;99.90;;;;;;4985360;28;20019;-62
2022/06/24 11:23:39;;;;;;;0.00;0.00;;;25.20;99.90;;;;;;4988189;28;20037;-63
2022/06/24 11:26:19;;;;;;;0.00;0.00;;;25.00;99.90;;;;;;4985141;28;20066;-63
2022/06/24 11:28:53;;;;;;;0.10;0.10;;;25.00;99.90;;;;;;4977764;28;20423;-63
2022/06/24 11:31:30;;;;;;;0.13;0.10;;;24.60;99.90;;;;;;4977684;28;20129;-63
2022/06/24 11:33:58;;;;;;;0.00;0.00;;;24.50;99.90;;;;;;4976120;28;20391;-63
2022/06/24 11:36:26;;;;;;;0.10;0.10;;;24.70;99.90;;;;;;4976672;28;20105;-62
2022/06/24 11:39:04;;;;;;;0.45;0.45;;;24.60;99.90;;;;;;5007469;28;20038;-63
2022/06/24 11:41:45;;;;;;;0.60;0.10;;;24.50;99.90;;;;;;4985160;28;20062;-66
2022/06/24 11:44:11;;;;;;;0.57;0.57;;;24.60;99.90;;;;;;4973171;28;20403;-63
2022/06/24 11:46:37;;;;;;;0.85;0.65;;;24.70;99.90;;;;;;4984380;28;20039;-63
2022/06/24 11:49:11;;;;;;;0.10;0.10;;;24.80;99.90;;;;;;4972401;28;20031;-62
2022/06/24 11:51:38;;;;;;;0.00;0.00;;;24.50;99.90;;;;;;4986288;28;20024;-62
2022/06/24 11:54:06;;;;;;;0.20;0.20;;;24.70;99.90;;;;;;4983709;28;20057;-63
2022/06/24 11:56:35;;;;;;;0.10;0.05;;;25.00;99.90;;;;;;5000918;28;20096;-63
2022/06/24 11:59:04;;;;;;;0.20;0.10;;;25.50;99.90;;;;;;4991417;28;20411;-61
2022/06/24 12:01:31;;;;;;;0.00;0.00;;;26.10;99.10;;;;;;4981565;28;20146;-63
2022/06/24 12:04:01;;;;;;;1.77;0.47;;;26.10;98.50;;;;;;4975430;28;20037;-61
2022/06/24 12:06:29;;;;;;;0.00;0.00;;;26.20;97.40;;;;;;5004018;28;20035;-61
2022/06/24 12:08:56;;;;;;;0.10;0.10;;;26.00;98.20;;;;;;4977161;28;20787;-61
2022/06/24 12:11:23;;;;;;;0.00;0.00;;;26.50;97.50;;;;;;4979788;28;20070;-61
2022/06/24 12:13:58;;;;;;;0.00;0.00;;;26.30;97.20;;;;;;4990114;28;20040;-62
2022/06/24 12:16:27;;;;;;;0.00;0.00;;;26.70;97.20;;;;;;4981874;28;20027;-62
2022/06/24 12:18:54;;;;;;;0.67;0.30;;;27.00;97.00;;;;;;4984556;28;20073;-62
2022/06/24 12:21:28;;;;;;;0.40;0.40;;;26.60;96.90;;;;;;4984639;28;20499;-63
2022/06/24 12:23:54;;;;;;;2.53;0.98;;;26.60;96.60;;;;;;4976410;28;20035;-63
2022/06/24 12:26:25;;;;;;;0.10;0.10;;;26.30;97.10;;;;;;4979821;28;20034;-62
2022/06/24 12:29:05;;;;;;;0.00;0.00;;;26.40;97.20;;;;;;4976414;28;20038;-63
2022/06/24 12:31:34;;;;;;;0.15;0.05;;;26.80;97.80;;;;;;4977429;28;20126;-63
2022/06/24 12:34:02;;;;;;;5.53;1.95;;;26.70;96.60;;;;;;4976467;28;20039;-63
2022/06/24 12:36:44;;;;;;;0.10;0.08;;;27.40;95.60;;;;;;4979583;28;20022;-63
2022/06/24 12:39:11;;;;;;;0.75;0.65;;;27.60;95.30;;;;;;4974959;28;20138;-63
2022/06/24 12:41:48;;;;;;;0.00;0.00;;;28.00;93.90;;;;;;4976779;28;20403;-63
2022/06/24 12:44:16;;;;;;;0.03;0.03;;;28.00;94.30;;;;;;4974096;28;20062;-62
2022/06/24 12:52:39;;;;;;;0.35;0.20;;;27.50;94.80;;;;;;4987907;28;20057;-62
2022/06/24 12:55:09;;;;;;;0.13;0.13;;;27.70;94.20;;;;;;4991736;28;20088;-61
2022/06/24 12:57:36;;;;;;;0.00;0.00;;;27.90;94.20;;;;;;4986237;28;20030;-62
2022/06/24 13:00:08;;;;;;;0.17;0.17;;;28.10;94.00;;;;;;4990595;28;20376;-62
2022/06/24 13:02:35;;;;;;;0.57;0.25;;;28.70;92.70;;;;;;4979921;28;20155;-63
2022/06/24 13:05:03;;;;;;;0.57;0.50;;;28.80;91.80;;;;;;4971810;28;20450;-63
2022/06/24 13:07:29;;;;;;;2.47;0.57;;;28.60;92.60;;;;;;4984560;28;20061;-63
2022/06/24 13:09:55;;;;;;;0.28;0.25;;;29.00;91.50;;;;;;4978858;28;20113;-63
2022/06/24 13:12:20;;;;;;;0.10;0.10;;;28.50;91.40;;;;;;4983843;28;20547;-63